sensor_id;sensor_type;location;lat;lon;timestamp;pressure;altitude;pressure_sealevel;temperature;humidity
74524;BME280;63004;44.694;10.422;2022-08-19T14:04:49;99836.63;;;23.71;100.00
74524;BME280;63004;44.694;10.422;2022-08-19T14:09:25;99833.25;;;24.04;100.00
74524;BME280;63004;44.694;10.422;2022-08-19T14:11:50;99840.44;;;23.87;100.00
74524;BME280;63004;44.694;10.422;2022-08-19T14:14:16;99842.41;;;23.78;100.00
74524;BME280;63004;44.694;10.422;2022-08-19T14:16:41;99832.75;;;23.72;100.00
74524;BME280;63004;44.694;10.422;2022-08-19T14:19:08;99840.16;;;23.72;100.00
74524;BME280;63004;44.694;10.422;2022-08-19T14:21:33;99839.19;;;23.68;100.00
74524;BME280;63004;44.694;10.422;2022-08-19T14:24:00;99832.59;;;23.69;100.00
74524;BME280;63004;44.694;10.422;2022-08-19T14:26:26;99844.03;;;23.71;100.00
74524;BME280;63004;44.694;10.422;2022-08-19T14:28:51;99838.56;;;23.71;100.00
74524;BME280;63004;44.694;10.422;2022-08-19T14:31:18;99830.47;;;23.74;100.00
74524;BME280;63004;44.694;10.422;2022-08-19T14:33:46;99832.38;;;23.91;100.00
74524;BME280;63004;44.694;10.422;2022-08-19T14:36:12;99828.28;;;23.97;100.00
74524;BME280;63004;44.694;10.422;2022-08-19T14:38:37;99825.28;;;24.19;100.00
74524;BME280;63004;44.694;10.422;2022-08-19T14:41:18;99833.13;;;24.00;100.00
74524;BME280;63004;44.694;10.422;2022-08-19T14:43:47;99826.72;;;23.87;100.00
74524;BME280;63004;44.694;10.422;2022-08-19T14:46:14;99821.75;;;23.81;100.00
74524;BME280;63004;44.694;10.422;2022-08-19T14:48:40;99825.78;;;23.75;100.00
74524;BME280;63004;44.694;10.422;2022-08-19T14:51:06;99821.28;;;23.70;100.00
74524;BME280;63004;44.694;10.422;2022-08-19T14:53:33;99824.72;;;23.67;100.00
74524;BME280;63004;44.694;10.422;2022-08-19T14:55:59;99833.28;;;23.66;100.00
74524;BME280;63004;44.694;10.422;2022-08-19T14:58:25;99826.97;;;23.65;100.00
74524;BME280;63004;44.694;10.422;2022-08-19T15:00:50;99828.09;;;23.64;100.00
74524;BME280;63004;44.694;10.422;2022-08-19T15:03:15;99826.81;;;23.62;100.00
74524;BME280;63004;44.694;10.422;2022-08-19T15:05:41;99820.53;;;23.61;100.00
74524;BME280;63004;44.694;10.422;2022-08-19T15:08:06;99827.63;;;23.62;100.00
74524;BME280;63004;44.694;10.422;2022-08-19T15:10:31;99833.13;;;23.62;100.00
74524;BME280;63004;44.694;10.422;2022-08-19T15:12:57;99837.78;;;23.62;100.00
74524;BME280;63004;44.694;10.422;2022-08-19T15:15:23;99846.03;;;23.62;100.00
74524;BME280;63004;44.694;10.422;2022-08-19T15:17:49;99840.53;;;23.62;100.00
74524;BME280;63004;44.694;10.422;2022-08-19T15:20:17;99835.84;;;23.62;100.00
74524;BME280;63004;44.694;10.422;2022-08-19T15:22:43;99834.41;;;23.65;100.00
74524;BME280;63004;44.694;10.422;2022-08-19T15:25:11;99838.75;;;23.66;100.00
74524;BME280;63004;44.694;10.422;2022-08-19T15:27:36;99834.41;;;23.65;100.00
74524;BME280;63004;44.694;10.422;2022-08-19T15:30:04;99837.94;;;23.65;100.00
74524;BME280;63004;44.694;10.422;2022-08-19T15:32:30;99840.38;;;23.67;100.00
74524;BME280;63004;44.694;10.422;2022-08-19T15:34:55;99837.63;;;23.67;100.00
74524;BME280;63004;44.694;10.422;2022-08-19T15:37:21;99840.00;;;23.68;100.00
74524;BME280;63004;44.694;10.422;2022-08-19T15:39:48;99835.69;;;23.67;100.00
74524;BME280;63004;44.694;10.422;2022-08-19T15:42:13;99842.75;;;23.68;100.00
74524;BME280;63004;44.694;10.422;2022-08-19T15:44:38;99843.13;;;23.67;100.00
74524;BME280;63004;44.694;10.422;2022-08-19T15:47:04;99834.88;;;23.67;100.00
74524;BME280;63004;44.694;10.422;2022-08-19T15:49:30;99841.50;;;23.66;100.00
74524;BME280;63004;44.694;10.422;2022-08-19T15:51:55;99831.34;;;23.66;100.00
74524;BME280;63004;44.694;10.422;2022-08-19T15:54:22;99833.59;;;23.64;100.00
74524;BME280;63004;44.694;10.422;2022-08-19T15:56:49;99842.97;;;23.63;100.00
74524;BME280;63004;44.694;10.422;2022-08-19T15:59:35;99837.78;;;23.62;100.00
74524;BME280;63004;44.694;10.422;2022-08-19T16:02:21;99838.13;;;23.60;100.00
74524;BME280;63004;44.694;10.422;2022-08-19T16:05:08;99844.75;;;23.59;100.00
74524;BME280;63004;44.694;10.422;2022-08-19T16:07:53;99836.50;;;23.59;100.00
74524;BME280;63004;44.694;10.422;2022-08-19T16:10:18;99841.19;;;23.59;100.00
74524;BME280;63004;44.694;10.422;2022-08-19T16:12:44;99839.25;;;23.59;100.00
74524;BME280;63004;44.694;10.422;2022-08-19T16:15:10;99841.50;;;23.57;100.00
74524;BME280;63004;44.694;10.422;2022-08-19T16:17:36;99848.59;;;23.58;100.00
74524;BME280;63004;44.694;10.422;2022-08-19T16:20:03;99850.56;;;23.58;100.00
74524;BME280;63004;44.694;10.422;2022-08-19T16:22:31;99854.09;;;23.58;100.00
74524;BME280;63004;44.694;10.422;2022-08-19T16:24:57;99851.69;;;23.56;100.00
74524;BME280;63004;44.694;10.422;2022-08-19T16:27:24;99858.78;;;23.58;100.00
74524;BME280;63004;44.694;10.422;2022-08-19T16:29:49;99861.19;;;23.59;100.00
74524;BME280;63004;44.694;10.422;2022-08-19T16:32:15;99859.25;;;23.60;100.00
74524;BME280;63004;44.694;10.422;2022-08-19T16:34:41;99864.75;;;23.60;100.00
74524;BME280;63004;44.694;10.422;2022-08-19T16:37:06;99872.97;;;23.60;100.00
74524;BME280;63004;44.694;10.422;2022-08-19T16:39:32;99871.03;;;23.60;100.00
74524;BME280;63004;44.694;10.422;2022-08-19T16:41:58;99875.38;;;23.61;100.00
74524;BME280;63004;44.694;10.422;2022-08-19T16:44:24;99870.72;;;23.62;100.00
74524;BME280;63004;44.694;10.422;2022-08-19T16:46:52;99867.16;;;23.61;100.00
74524;BME280;63004;44.694;10.422;2022-08-19T16:49:18;99861.34;;;23.63;100.00
74524;BME280;63004;44.694;10.422;2022-08-19T16:51:44;99864.09;;;23.63;100.00
74524;BME280;63004;44.694;10.422;2022-08-19T16:54:11;99857.47;;;23.64;100.00
74524;BME280;63004;44.694;10.422;2022-08-19T16:56:36;99858.59;;;23.63;100.00
74524;BME280;63004;44.694;10.422;2022-08-19T16:59:02;99854.25;;;23.62;100.00
74524;BME280;63004;44.694;10.422;2022-08-19T17:01:28;99859.75;;;23.62;100.00
74524;BME280;63004;44.694;10.422;2022-08-19T17:03:54;99865.56;;;23.60;100.00
74524;BME280;63004;44.694;10.422;2022-08-19T17:06:22;99855.72;;;23.59;100.00
74524;BME280;63004;44.694;10.422;2022-08-19T17:08:53;99867.81;;;23.58;100.00
74524;BME280;63004;44.694;10.422;2022-08-19T17:11:20;99864.25;;;23.58;100.00
74524;BME280;63004;44.694;10.422;2022-08-19T17:13:47;99855.22;;;23.57;100.00
74524;BME280;63004;44.694;10.422;2022-08-19T17:16:16;99863.44;;;23.57;100.00
74524;BME280;63004;44.694;10.422;2022-08-19T17:18:42;99860.72;;;23.57;100.00
74524;BME280;63004;44.694;10.422;2022-08-19T17:21:08;99862.66;;;23.56;100.00
74524;BME280;63004;44.694;10.422;2022-08-19T17:23:33;99868.13;;;23.56;100.00
74524;BME280;63004;44.694;10.422;2022-08-19T17:25:59;99872.81;;;23.56;100.00
74524;BME280;63004;44.694;10.422;2022-08-19T17:28:27;99872.00;;;23.55;100.00
74524;BME280;63004;44.694;10.422;2022-08-19T17:30:53;99868.13;;;23.56;100.00
74524;BME280;63004;44.694;10.422;2022-08-19T17:33:19;99870.88;;;23.56;100.00
74524;BME280;63004;44.694;10.422;2022-08-19T17:35:44;99877.16;;;23.57;100.00
74524;BME280;63004;44.694;10.422;2022-08-19T17:38:13;99883.94;;;23.60;100.00
74524;BME280;63004;44.694;10.422;2022-08-19T17:40:40;99890.22;;;23.60;100.00
74524;BME280;63004;44.694;10.422;2022-08-19T17:43:07;99891.03;;;23.61;100.00
74524;BME280;63004;44.694;10.422;2022-08-19T17:45:34;99897.34;;;23.61;100.00
74524;BME280;63004;44.694;10.422;2022-08-19T17:48:00;99896.19;;;23.62;100.00
74524;BME280;63004;44.694;10.422;2022-08-19T17:50:26;99898.13;;;23.62;100.00
74524;BME280;63004;44.694;10.422;2022-08-19T17:52:52;99898.94;;;23.62;100.00
74524;BME280;63004;44.694;10.422;2022-08-19T17:55:19;99907.97;;;23.63;100.00
74524;BME280;63004;44.694;10.422;2022-08-19T17:57:44;99909.09;;;23.62;100.00
74524;BME280;63004;44.694;10.422;2022-08-19T18:00:10;99898.94;;;23.62;100.00
74524;BME280;63004;44.694;10.422;2022-08-19T18:02:49;99903.28;;;23.63;100.00
74524;BME280;63004;44.694;10.422;2022-08-19T18:05:17;99905.25;;;23.63;100.00
74524;BME280;63004;44.694;10.422;2022-08-19T18:07:42;99912.34;;;23.64;100.00
74524;BME280;63004;44.694;10.422;2022-08-19T18:10:09;99914.28;;;23.63;100.00
74524;BME280;63004;44.694;10.422;2022-08-19T18:12:34;99920.88;;;23.62;100.00
74524;BME280;63004;44.694;10.422;2022-08-19T18:15:01;99914.91;;;23.60;100.00
74524;BME280;63004;44.694;10.422;2022-08-19T18:17:28;99922.34;;;23.60;100.00
74524;BME280;63004;44.694;10.422;2022-08-19T18:19:54;99927.03;;;23.59;100.00
74524;BME280;63004;44.694;10.422;2022-08-19T18:22:29;99936.38;;;23.58;100.00
74524;BME280;63004;44.694;10.422;2022-08-19T18:24:56;99934.44;;;23.59;100.00
74524;BME280;63004;44.694;10.422;2022-08-19T18:27:24;99936.38;;;23.58;100.00
74524;BME280;63004;44.694;10.422;2022-08-19T18:29:49;99939.94;;;23.59;100.00
74524;BME280;63004;44.694;10.422;2022-08-19T18:32:16;99934.75;;;23.57;100.00
74524;BME280;63004;44.694;10.422;2022-08-19T18:34:43;99944.59;;;23.58;100.00
74524;BME280;63004;44.694;10.422;2022-08-19T18:37:10;99947.66;;;23.56;100.00
74524;BME280;63004;44.694;10.422;2022-08-19T18:39:35;99948.47;;;23.57;100.00
74524;BME280;63004;44.694;10.422;2022-08-19T18:42:19;99952.03;;;23.58;100.00
74524;BME280;63004;44.694;10.422;2022-08-19T18:45:04;99947.34;;;23.58;100.00
74524;BME280;63004;44.694;10.422;2022-08-19T18:47:49;99948.97;;;23.59;100.00
74524;BME280;63004;44.694;10.422;2022-08-19T18:50:33;99948.97;;;23.59;100.00
74524;BME280;63004;44.694;10.422;2022-08-19T18:52:58;99959.28;;;23.62;100.00
74524;BME280;63004;44.694;10.422;2022-08-19T18:55:24;99952.19;;;23.61;100.00
74524;BME280;63004;44.694;10.422;2022-08-19T18:57:51;99955.75;;;23.62;100.00
74524;BME280;63004;44.694;10.422;2022-08-19T19:00:17;99962.03;;;23.62;100.00
74524;BME280;63004;44.694;10.422;2022-08-19T19:02:42;99964.78;;;23.62;100.00
74524;BME280;63004;44.694;10.422;2022-08-19T19:05:13;99967.50;;;23.62;100.00
74524;BME280;63004;44.694;10.422;2022-08-19T19:07:39;99967.50;;;23.62;100.00
74524;BME280;63004;44.694;10.422;2022-08-19T19:10:06;99968.31;;;23.63;100.00
74524;BME280;63004;44.694;10.422;2022-08-19T19:12:41;99976.56;;;23.63;100.00
74524;BME280;63004;44.694;10.422;2022-08-19T19:15:09;99973.00;;;23.62;100.00
74524;BME280;63004;44.694;10.422;2022-08-19T19:17:34;99979.28;;;23.63;100.00
74524;BME280;63004;44.694;10.422;2022-08-19T19:19:59;99985.59;;;23.63;100.00
74524;BME280;63004;44.694;10.422;2022-08-19T19:22:25;99982.03;;;23.63;100.00
74524;BME280;63004;44.694;10.422;2022-08-19T19:24:50;99977.69;;;23.62;100.00
74524;BME280;63004;44.694;10.422;2022-08-19T19:27:18;99989.78;;;23.61;100.00
74524;BME280;63004;44.694;10.422;2022-08-19T19:29:45;99990.59;;;23.61;100.00
74524;BME280;63004;44.694;10.422;2022-08-19T19:32:27;99983.81;;;23.59;100.00
74524;BME280;63004;44.694;10.422;2022-08-19T19:34:55;99983.81;;;23.59;100.00
74524;BME280;63004;44.694;10.422;2022-08-19T19:37:20;99993.66;;;23.60;100.00
74524;BME280;63004;44.694;10.422;2022-08-19T19:39:47;99998.00;;;23.61;100.00
74524;BME280;63004;44.694;10.422;2022-08-19T19:42:16;99987.34;;;23.59;100.00
74524;BME280;63004;44.694;10.422;2022-08-19T19:44:44;99990.91;;;23.60;100.00
74524;BME280;63004;44.694;10.422;2022-08-19T19:47:13;99987.34;;;23.59;100.00
74524;BME280;63004;44.694;10.422;2022-08-19T19:49:39;99996.72;;;23.58;100.00
74524;BME280;63004;44.694;10.422;2022-08-19T19:52:05;99997.84;;;23.57;100.00
74524;BME280;63004;44.694;10.422;2022-08-19T19:54:32;99993.66;;;23.60;100.00
74524;BME280;63004;44.694;10.422;2022-08-19T19:56:57;99998.34;;;23.59;100.00
74524;BME280;63004;44.694;10.422;2022-08-19T19:59:23;100003.50;;;23.61;100.00
74524;BME280;63004;44.694;10.422;2022-08-19T20:01:48;100009.78;;;23.61;100.00
74524;BME280;63004;44.694;10.422;2022-08-19T20:04:16;100010.59;;;23.62;100.00
74524;BME280;63004;44.694;10.422;2022-08-19T20:06:43;100012.53;;;23.61;100.00
74524;BME280;63004;44.694;10.422;2022-08-19T20:09:08;100015.75;;;23.63;100.00
74524;BME280;63004;44.694;10.422;2022-08-19T20:11:57;100023.19;;;23.63;100.00
74524;BME280;63004;44.694;10.422;2022-08-19T20:14:28;100014.94;;;23.63;100.00
74524;BME280;63004;44.694;10.422;2022-08-19T20:16:55;100018.81;;;23.62;100.00
74524;BME280;63004;44.694;10.422;2022-08-19T20:19:30;100020.44;;;23.63;100.00
74524;BME280;63004;44.694;10.422;2022-08-19T20:21:57;100030.28;;;23.64;100.00
74524;BME280;63004;44.694;10.422;2022-08-19T20:24:26;100033.03;;;23.64;100.00
74524;BME280;63004;44.694;10.422;2022-08-19T20:26:52;100039.31;;;23.64;100.00
74524;BME280;63004;44.694;10.422;2022-08-19T20:29:18;100040.44;;;23.63;100.00
74524;BME280;63004;44.694;10.422;2022-08-19T20:31:44;100041.56;;;23.62;100.00
74524;BME280;63004;44.694;10.422;2022-08-19T20:34:11;100040.78;;;23.62;100.00
74524;BME280;63004;44.694;10.422;2022-08-19T20:36:38;100042.69;;;23.61;100.00
74524;BME280;63004;44.694;10.422;2022-08-19T20:39:04;100049.00;;;23.62;100.00
74524;BME280;63004;44.694;10.422;2022-08-19T20:41:30;100044.63;;;23.61;100.00
74524;BME280;63004;44.694;10.422;2022-08-19T20:43:56;100046.25;;;23.62;100.00
74524;BME280;63004;44.694;10.422;2022-08-19T20:46:23;100050.94;;;23.61;100.00
74524;BME280;63004;44.694;10.422;2022-08-19T20:48:48;100045.44;;;23.61;100.00
74524;BME280;63004;44.694;10.422;2022-08-19T20:51:14;100048.50;;;23.60;100.00
74524;BME280;63004;44.694;10.422;2022-08-19T20:53:40;100045.44;;;23.61;100.00
74524;BME280;63004;44.694;10.422;2022-08-19T20:56:06;100043.03;;;23.60;100.00
74524;BME280;63004;44.694;10.422;2022-08-19T20:58:33;100043.84;;;23.60;100.00
74524;BME280;63004;44.694;10.422;2022-08-19T21:01:00;100043.84;;;23.60;100.00
74524;BME280;63004;44.694;10.422;2022-08-19T21:03:28;100043.03;;;23.60;100.00
74524;BME280;63004;44.694;10.422;2022-08-19T21:05:55;100050.94;;;23.61;100.00
74524;BME280;63004;44.694;10.422;2022-08-19T21:08:22;100053.69;;;23.61;100.00
74524;BME280;63004;44.694;10.422;2022-08-19T21:10:49;100048.19;;;23.61;100.00
74524;BME280;63004;44.694;10.422;2022-08-19T21:13:16;100044.31;;;23.62;100.00
74524;BME280;63004;44.694;10.422;2022-08-19T21:15:42;100048.69;;;23.63;100.00
74524;BME280;63004;44.694;10.422;2022-08-19T21:18:10;100042.38;;;23.63;100.00
74524;BME280;63004;44.694;10.422;2022-08-19T21:20:36;100045.13;;;23.63;100.00
74524;BME280;63004;44.694;10.422;2022-08-19T21:23:06;100042.38;;;23.63;100.00
74524;BME280;63004;44.694;10.422;2022-08-19T21:25:32;100049.81;;;23.62;100.00
74524;BME280;63004;44.694;10.422;2022-08-19T21:27:57;100044.31;;;23.62;100.00
74524;BME280;63004;44.694;10.422;2022-08-19T21:30:23;100045.94;;;23.63;100.00
74524;BME280;63004;44.694;10.422;2022-08-19T21:32:48;100041.56;;;23.62;100.00
74524;BME280;63004;44.694;10.422;2022-08-19T21:35:14;100035.78;;;23.64;100.00
74524;BME280;63004;44.694;10.422;2022-08-19T21:37:39;100033.34;;;23.62;100.00
74524;BME280;63004;44.694;10.422;2022-08-19T21:40:06;100042.38;;;23.63;100.00
74524;BME280;63004;44.694;10.422;2022-08-19T21:42:32;100038.84;;;23.62;100.00
74524;BME280;63004;44.694;10.422;2022-08-19T21:44:57;100037.22;;;23.61;100.00
74524;BME280;63004;44.694;10.422;2022-08-19T21:47:24;100034.47;;;23.61;100.00
74524;BME280;63004;44.694;10.422;2022-08-19T21:49:49;100025.44;;;23.61;100.00
74524;BME280;63004;44.694;10.422;2022-08-19T21:52:22;100027.38;;;23.60;100.00
74524;BME280;63004;44.694;10.422;2022-08-19T21:54:48;100021.88;;;23.60;100.00
74524;BME280;63004;44.694;10.422;2022-08-19T21:57:13;100032.84;;;23.60;100.00
74524;BME280;63004;44.694;10.422;2022-08-19T21:59:39;100027.69;;;23.59;100.00
74524;BME280;63004;44.694;10.422;2022-08-19T22:02:05;100028.81;;;23.58;100.00
74524;BME280;63004;44.694;10.422;2022-08-19T22:04:30;100033.50;;;23.57;100.00
74524;BME280;63004;44.694;10.422;2022-08-19T22:06:56;100035.44;;;23.56;100.00
74524;BME280;63004;44.694;10.422;2022-08-19T22:09:21;100043.66;;;23.56;100.00
74524;BME280;63004;44.694;10.422;2022-08-19T22:11:46;100040.91;;;23.56;100.00
74524;BME280;63004;44.694;10.422;2022-08-19T22:14:13;100051.56;;;23.58;100.00
74524;BME280;63004;44.694;10.422;2022-08-19T22:16:38;100051.56;;;23.58;100.00
74524;BME280;63004;44.694;10.422;2022-08-19T22:19:04;100053.19;;;23.59;100.00
74524;BME280;63004;44.694;10.422;2022-08-19T22:21:30;100054.00;;;23.60;100.00
74524;BME280;63004;44.694;10.422;2022-08-19T22:23:55;100049.31;;;23.60;100.00
74524;BME280;63004;44.694;10.422;2022-08-19T22:26:21;100049.31;;;23.60;100.00
74524;BME280;63004;44.694;10.422;2022-08-19T22:28:46;100046.56;;;23.60;100.00
74524;BME280;63004;44.694;10.422;2022-08-19T22:31:12;100043.84;;;23.60;100.00
74524;BME280;63004;44.694;10.422;2022-08-19T22:33:37;100053.69;;;23.61;100.00
74524;BME280;63004;44.694;10.422;2022-08-19T22:36:05;100055.28;;;23.62;100.00
74524;BME280;63004;44.694;10.422;2022-08-19T22:38:32;100057.22;;;23.62;100.00
74524;BME280;63004;44.694;10.422;2022-08-19T22:40:57;100053.69;;;23.61;100.00
74524;BME280;63004;44.694;10.422;2022-08-19T22:43:28;100068.19;;;23.62;100.00
74524;BME280;63004;44.694;10.422;2022-08-19T22:45:59;100061.91;;;23.61;100.00
74524;BME280;63004;44.694;10.422;2022-08-19T22:48:27;100055.59;;;23.61;100.00
74524;BME280;63004;44.694;10.422;2022-08-19T22:50:53;100064.97;;;23.60;100.00
74524;BME280;63004;44.694;10.422;2022-08-19T22:53:40;100062.22;;;23.60;100.00
74524;BME280;63004;44.694;10.422;2022-08-19T22:56:07;100066.09;;;23.59;100.00
74524;BME280;63004;44.694;10.422;2022-08-19T22:58:33;100063.34;;;23.59;100.00
74524;BME280;63004;44.694;10.422;2022-08-19T23:00:59;100060.94;;;23.57;100.00
74524;BME280;63004;44.694;10.422;2022-08-19T23:03:25;100064.78;;;23.56;100.00
74524;BME280;63004;44.694;10.422;2022-08-19T23:05:50;100066.41;;;23.57;100.00
74524;BME280;63004;44.694;10.422;2022-08-19T23:08:16;100062.06;;;23.56;100.00
74524;BME280;63004;44.694;10.422;2022-08-19T23:10:41;100062.88;;;23.56;100.00
74524;BME280;63004;44.694;10.422;2022-08-19T23:13:07;100063.19;;;23.55;100.00
74524;BME280;63004;44.694;10.422;2022-08-19T23:15:34;100067.88;;;23.54;100.00
74524;BME280;63004;44.694;10.422;2022-08-19T23:18:02;100061.56;;;23.54;100.00
74524;BME280;63004;44.694;10.422;2022-08-19T23:20:33;100067.88;;;23.54;100.00
74524;BME280;63004;44.694;10.422;2022-08-19T23:23:02;100051.41;;;23.54;100.00
74524;BME280;63004;44.694;10.422;2022-08-19T23:25:30;100051.41;;;23.54;100.00
74524;BME280;63004;44.694;10.422;2022-08-19T23:27:56;100060.44;;;23.55;100.00
74524;BME280;63004;44.694;10.422;2022-08-19T23:30:42;100052.22;;;23.55;100.00
74524;BME280;63004;44.694;10.422;2022-08-19T23:35:40;100060.94;;;23.57;100.00
74524;BME280;63004;44.694;10.422;2022-08-19T23:38:07;100049.16;;;23.56;100.00
74524;BME280;63004;44.694;10.422;2022-08-19T23:40:34;100060.94;;;23.57;100.00
74524;BME280;63004;44.694;10.422;2022-08-19T23:43:00;100051.41;;;23.54;100.00
74524;BME280;63004;44.694;10.422;2022-08-19T23:45:28;100053.03;;;23.55;100.00
74524;BME280;63004;44.694;10.422;2022-08-19T23:47:54;100049.47;;;23.55;100.00
74524;BME280;63004;44.694;10.422;2022-08-19T23:50:21;100047.53;;;23.55;100.00
74524;BME280;63004;44.694;10.422;2022-08-19T23:52:53;100046.72;;;23.55;100.00
74524;BME280;63004;44.694;10.422;2022-08-19T23:55:22;100058.50;;;23.55;100.00
74524;BME280;63004;44.694;10.422;2022-08-19T23:57:48;100062.88;;;23.56;100.00
